sensor_id;sensor_type;location;lat;lon;timestamp;P1;durP1;ratioP1;P2;durP2;ratioP2
36651;SDS011;53334;51.976;20.144;2022-10-10T00:02:09;18.83;;;14.65;;
36651;SDS011;53334;51.976;20.144;2022-10-10T00:04:43;23.83;;;14.88;;
36651;SDS011;53334;51.976;20.144;2022-10-10T00:07:19;22.90;;;15.80;;
36651;SDS011;53334;51.976;20.144;2022-10-10T00:09:53;21.23;;;15.43;;
36651;SDS011;53334;51.976;20.144;2022-10-10T00:12:26;21.75;;;14.07;;
36651;SDS011;53334;51.976;20.144;2022-10-10T00:15:00;23.38;;;14.98;;
36651;SDS011;53334;51.976;20.144;2022-10-10T00:17:34;21.67;;;14.43;;
36651;SDS011;53334;51.976;20.144;2022-10-10T00:20:09;18.88;;;14.05;;
36651;SDS011;53334;51.976;20.144;2022-10-10T00:22:45;18.52;;;14.38;;
36651;SDS011;53334;51.976;20.144;2022-10-10T00:25:20;16.65;;;12.63;;
36651;SDS011;53334;51.976;20.144;2022-10-10T00:27:54;17.85;;;13.20;;
36651;SDS011;53334;51.976;20.144;2022-10-10T00:30:28;19.17;;;13.85;;
36651;SDS011;53334;51.976;20.144;2022-10-10T00:33:03;18.70;;;13.18;;
36651;SDS011;53334;51.976;20.144;2022-10-10T00:35:37;20.08;;;14.00;;
36651;SDS011;53334;51.976;20.144;2022-10-10T00:38:12;19.65;;;13.73;;
36651;SDS011;53334;51.976;20.144;2022-10-10T00:40:46;16.52;;;12.57;;
36651;SDS011;53334;51.976;20.144;2022-10-10T00:43:22;17.38;;;13.48;;
36651;SDS011;53334;51.976;20.144;2022-10-10T00:45:57;16.83;;;13.45;;
36651;SDS011;53334;51.976;20.144;2022-10-10T00:48:31;18.05;;;12.73;;
36651;SDS011;53334;51.976;20.144;2022-10-10T00:51:10;15.63;;;11.80;;
36651;SDS011;53334;51.976;20.144;2022-10-10T00:53:47;14.50;;;11.43;;
36651;SDS011;53334;51.976;20.144;2022-10-10T00:56:25;19.67;;;11.75;;
36651;SDS011;53334;51.976;20.144;2022-10-10T00:59:01;15.63;;;11.50;;
36651;SDS011;53334;51.976;20.144;2022-10-10T01:01:38;20.10;;;12.65;;
36651;SDS011;53334;51.976;20.144;2022-10-10T01:04:26;17.02;;;11.77;;
36651;SDS011;53334;51.976;20.144;2022-10-10T01:07:05;13.82;;;10.80;;
36651;SDS011;53334;51.976;20.144;2022-10-10T01:09:43;16.42;;;12.05;;
36651;SDS011;53334;51.976;20.144;2022-10-10T01:12:20;15.68;;;10.85;;
36651;SDS011;53334;51.976;20.144;2022-10-10T01:15:00;18.35;;;11.90;;
36651;SDS011;53334;51.976;20.144;2022-10-10T01:17:42;13.80;;;10.70;;
36651;SDS011;53334;51.976;20.144;2022-10-10T01:20:32;14.05;;;9.90;;
36651;SDS011;53334;51.976;20.144;2022-10-10T01:23:40;14.48;;;10.63;;
36651;SDS011;53334;51.976;20.144;2022-10-10T01:29:40;15.73;;;10.80;;
36651;SDS011;53334;51.976;20.144;2022-10-10T01:32:19;15.05;;;10.18;;
36651;SDS011;53334;51.976;20.144;2022-10-10T01:38:14;11.70;;;9.43;;
36651;SDS011;53334;51.976;20.144;2022-10-10T01:41:00;13.65;;;9.60;;
36651;SDS011;53334;51.976;20.144;2022-10-10T01:43:38;13.73;;;10.40;;
36651;SDS011;53334;51.976;20.144;2022-10-10T01:46:15;12.90;;;9.95;;
36651;SDS011;53334;51.976;20.144;2022-10-10T01:48:51;12.68;;;9.95;;
36651;SDS011;53334;51.976;20.144;2022-10-10T01:51:33;14.57;;;10.10;;
36651;SDS011;53334;51.976;20.144;2022-10-10T01:54:25;14.55;;;10.57;;
36651;SDS011;53334;51.976;20.144;2022-10-10T01:57:19;12.25;;;9.75;;
36651;SDS011;53334;51.976;20.144;2022-10-10T01:59:58;13.60;;;9.60;;
36651;SDS011;53334;51.976;20.144;2022-10-10T02:02:41;10.27;;;8.02;;
36651;SDS011;53334;51.976;20.144;2022-10-10T02:05:23;11.13;;;8.75;;
36651;SDS011;53334;51.976;20.144;2022-10-10T02:08:02;11.50;;;9.43;;
36651;SDS011;53334;51.976;20.144;2022-10-10T02:10:41;12.32;;;9.27;;
36651;SDS011;53334;51.976;20.144;2022-10-10T02:13:18;13.10;;;9.68;;
36651;SDS011;53334;51.976;20.144;2022-10-10T02:15:55;12.60;;;9.43;;
36651;SDS011;53334;51.976;20.144;2022-10-10T02:18:33;11.68;;;8.80;;
36651;SDS011;53334;51.976;20.144;2022-10-10T02:21:08;12.85;;;8.93;;
36651;SDS011;53334;51.976;20.144;2022-10-10T02:23:44;10.45;;;8.95;;
36651;SDS011;53334;51.976;20.144;2022-10-10T02:26:20;15.05;;;8.85;;
36651;SDS011;53334;51.976;20.144;2022-10-10T02:28:58;11.80;;;9.07;;
36651;SDS011;53334;51.976;20.144;2022-10-10T02:31:38;12.02;;;9.50;;
36651;SDS011;53334;51.976;20.144;2022-10-10T02:34:17;12.50;;;9.32;;
36651;SDS011;53334;51.976;20.144;2022-10-10T02:36:54;12.88;;;9.57;;
36651;SDS011;53334;51.976;20.144;2022-10-10T02:39:31;12.23;;;8.73;;
36651;SDS011;53334;51.976;20.144;2022-10-10T02:42:08;12.98;;;8.00;;
36651;SDS011;53334;51.976;20.144;2022-10-10T02:44:44;10.07;;;8.85;;
36651;SDS011;53334;51.976;20.144;2022-10-10T02:47:19;11.85;;;9.15;;
36651;SDS011;53334;51.976;20.144;2022-10-10T02:49:54;12.00;;;8.70;;
36651;SDS011;53334;51.976;20.144;2022-10-10T02:52:28;10.43;;;8.68;;
36651;SDS011;53334;51.976;20.144;2022-10-10T02:55:03;11.23;;;8.13;;
36651;SDS011;53334;51.976;20.144;2022-10-10T02:57:37;10.75;;;8.40;;
36651;SDS011;53334;51.976;20.144;2022-10-10T03:00:12;12.27;;;9.05;;
36651;SDS011;53334;51.976;20.144;2022-10-10T03:02:46;10.50;;;7.88;;
36651;SDS011;53334;51.976;20.144;2022-10-10T03:05:22;11.52;;;8.35;;
36651;SDS011;53334;51.976;20.144;2022-10-10T03:07:56;10.43;;;7.95;;
36651;SDS011;53334;51.976;20.144;2022-10-10T03:10:30;9.90;;;8.23;;
36651;SDS011;53334;51.976;20.144;2022-10-10T03:13:04;8.82;;;7.68;;
36651;SDS011;53334;51.976;20.144;2022-10-10T03:15:39;9.85;;;7.82;;
36651;SDS011;53334;51.976;20.144;2022-10-10T03:18:13;9.82;;;7.35;;
36651;SDS011;53334;51.976;20.144;2022-10-10T03:20:50;11.90;;;8.35;;
36651;SDS011;53334;51.976;20.144;2022-10-10T03:23:25;10.48;;;7.63;;
36651;SDS011;53334;51.976;20.144;2022-10-10T03:25:59;8.25;;;7.43;;
36651;SDS011;53334;51.976;20.144;2022-10-10T03:28:35;10.18;;;7.68;;
36651;SDS011;53334;51.976;20.144;2022-10-10T03:31:09;10.02;;;7.93;;
36651;SDS011;53334;51.976;20.144;2022-10-10T03:33:43;9.80;;;7.50;;
36651;SDS011;53334;51.976;20.144;2022-10-10T03:36:18;8.82;;;7.22;;
36651;SDS011;53334;51.976;20.144;2022-10-10T03:38:53;9.32;;;7.30;;
36651;SDS011;53334;51.976;20.144;2022-10-10T03:41:27;10.55;;;7.03;;
36651;SDS011;53334;51.976;20.144;2022-10-10T03:44:01;8.52;;;7.45;;
36651;SDS011;53334;51.976;20.144;2022-10-10T03:46:35;9.07;;;6.68;;
36651;SDS011;53334;51.976;20.144;2022-10-10T03:49:09;7.80;;;6.82;;
36651;SDS011;53334;51.976;20.144;2022-10-10T03:51:45;8.68;;;7.20;;
36651;SDS011;53334;51.976;20.144;2022-10-10T03:54:18;11.10;;;6.80;;
36651;SDS011;53334;51.976;20.144;2022-10-10T03:56:53;9.45;;;7.32;;
36651;SDS011;53334;51.976;20.144;2022-10-10T03:59:26;7.38;;;6.55;;
36651;SDS011;53334;51.976;20.144;2022-10-10T04:02:00;9.13;;;6.82;;
36651;SDS011;53334;51.976;20.144;2022-10-10T04:04:34;9.20;;;7.00;;
36651;SDS011;53334;51.976;20.144;2022-10-10T04:07:10;11.75;;;7.28;;
36651;SDS011;53334;51.976;20.144;2022-10-10T04:09:44;11.63;;;6.95;;
36651;SDS011;53334;51.976;20.144;2022-10-10T04:12:18;9.02;;;7.47;;
36651;SDS011;53334;51.976;20.144;2022-10-10T04:14:53;11.80;;;6.80;;
36651;SDS011;53334;51.976;20.144;2022-10-10T04:17:27;7.70;;;6.18;;
36651;SDS011;53334;51.976;20.144;2022-10-10T04:20:01;13.95;;;6.32;;
36651;SDS011;53334;51.976;20.144;2022-10-10T04:22:36;14.35;;;7.38;;
36651;SDS011;53334;51.976;20.144;2022-10-10T04:25:10;8.45;;;6.60;;
36651;SDS011;53334;51.976;20.144;2022-10-10T04:27:44;11.07;;;6.60;;
36651;SDS011;53334;51.976;20.144;2022-10-10T04:30:18;8.10;;;6.22;;
36651;SDS011;53334;51.976;20.144;2022-10-10T04:32:52;6.53;;;5.05;;
36651;SDS011;53334;51.976;20.144;2022-10-10T04:35:26;8.70;;;5.80;;
36651;SDS011;53334;51.976;20.144;2022-10-10T04:38:01;10.55;;;6.93;;
36651;SDS011;53334;51.976;20.144;2022-10-10T04:40:35;11.95;;;6.40;;
36651;SDS011;53334;51.976;20.144;2022-10-10T04:43:09;6.90;;;5.88;;
36651;SDS011;53334;51.976;20.144;2022-10-10T04:45:43;6.70;;;5.78;;
36651;SDS011;53334;51.976;20.144;2022-10-10T04:48:17;6.50;;;5.57;;
36651;SDS011;53334;51.976;20.144;2022-10-10T04:50:51;7.20;;;5.82;;
36651;SDS011;53334;51.976;20.144;2022-10-10T04:53:27;8.45;;;6.13;;
36651;SDS011;53334;51.976;20.144;2022-10-10T04:56:01;6.13;;;5.53;;
36651;SDS011;53334;51.976;20.144;2022-10-10T04:58:36;10.27;;;6.28;;
36651;SDS011;53334;51.976;20.144;2022-10-10T05:01:10;7.40;;;6.20;;
36651;SDS011;53334;51.976;20.144;2022-10-10T05:03:44;11.85;;;5.93;;
36651;SDS011;53334;51.976;20.144;2022-10-10T05:06:18;9.98;;;6.00;;
36651;SDS011;53334;51.976;20.144;2022-10-10T05:08:53;11.32;;;5.45;;
36651;SDS011;53334;51.976;20.144;2022-10-10T05:11:27;8.93;;;5.88;;
36651;SDS011;53334;51.976;20.144;2022-10-10T05:14:01;15.90;;;5.00;;
36651;SDS011;53334;51.976;20.144;2022-10-10T05:16:35;7.45;;;5.63;;
36651;SDS011;53334;51.976;20.144;2022-10-10T05:19:09;9.07;;;6.38;;
36651;SDS011;53334;51.976;20.144;2022-10-10T05:21:43;7.88;;;5.82;;
36651;SDS011;53334;51.976;20.144;2022-10-10T05:24:19;13.95;;;6.70;;
36651;SDS011;53334;51.976;20.144;2022-10-10T05:26:53;8.75;;;5.47;;
36651;SDS011;53334;51.976;20.144;2022-10-10T05:29:27;10.00;;;6.68;;
36651;SDS011;53334;51.976;20.144;2022-10-10T05:32:01;7.95;;;6.30;;
36651;SDS011;53334;51.976;20.144;2022-10-10T05:34:40;11.73;;;7.15;;
36651;SDS011;53334;51.976;20.144;2022-10-10T05:37:15;9.45;;;5.90;;
36651;SDS011;53334;51.976;20.144;2022-10-10T05:39:50;9.15;;;6.40;;
36651;SDS011;53334;51.976;20.144;2022-10-10T05:42:25;10.10;;;6.68;;
36651;SDS011;53334;51.976;20.144;2022-10-10T05:44:59;22.13;;;7.15;;
36651;SDS011;53334;51.976;20.144;2022-10-10T05:47:33;12.82;;;6.68;;
36651;SDS011;53334;51.976;20.144;2022-10-10T05:50:08;20.20;;;7.47;;
36651;SDS011;53334;51.976;20.144;2022-10-10T05:52:55;23.27;;;6.90;;
36651;SDS011;53334;51.976;20.144;2022-10-10T05:55:31;29.33;;;7.45;;
36651;SDS011;53334;51.976;20.144;2022-10-10T05:58:06;11.27;;;6.50;;
36651;SDS011;53334;51.976;20.144;2022-10-10T06:00:40;23.77;;;7.63;;
36651;SDS011;53334;51.976;20.144;2022-10-10T06:03:16;12.20;;;6.38;;
36651;SDS011;53334;51.976;20.144;2022-10-10T06:05:50;23.42;;;7.63;;
36651;SDS011;53334;51.976;20.144;2022-10-10T06:08:24;25.05;;;7.38;;
36651;SDS011;53334;51.976;20.144;2022-10-10T06:11:04;11.27;;;6.65;;
36651;SDS011;53334;51.976;20.144;2022-10-10T06:13:39;13.90;;;7.07;;
36651;SDS011;53334;51.976;20.144;2022-10-10T06:16:13;16.02;;;7.28;;
36651;SDS011;53334;51.976;20.144;2022-10-10T06:18:47;12.98;;;7.45;;
36651;SDS011;53334;51.976;20.144;2022-10-10T06:21:22;15.88;;;5.78;;
36651;SDS011;53334;51.976;20.144;2022-10-10T06:23:56;15.98;;;7.47;;
36651;SDS011;53334;51.976;20.144;2022-10-10T06:26:32;12.63;;;6.25;;
36651;SDS011;53334;51.976;20.144;2022-10-10T06:29:06;11.45;;;6.82;;
36651;SDS011;53334;51.976;20.144;2022-10-10T06:31:40;17.98;;;7.18;;
36651;SDS011;53334;51.976;20.144;2022-10-10T06:34:14;14.93;;;7.68;;
36651;SDS011;53334;51.976;20.144;2022-10-10T06:36:48;17.17;;;6.50;;
36651;SDS011;53334;51.976;20.144;2022-10-10T06:39:22;21.23;;;12.88;;
36651;SDS011;53334;51.976;20.144;2022-10-10T06:41:58;18.83;;;11.07;;
36651;SDS011;53334;51.976;20.144;2022-10-10T06:44:32;13.23;;;10.32;;
36651;SDS011;53334;51.976;20.144;2022-10-10T06:47:06;17.38;;;10.13;;
36651;SDS011;53334;51.976;20.144;2022-10-10T06:49:42;13.25;;;10.10;;
36651;SDS011;53334;51.976;20.144;2022-10-10T06:52:17;14.25;;;8.65;;
36651;SDS011;53334;51.976;20.144;2022-10-10T06:54:51;15.13;;;9.00;;
36651;SDS011;53334;51.976;20.144;2022-10-10T06:57:26;13.68;;;9.07;;
36651;SDS011;53334;51.976;20.144;2022-10-10T07:00:01;15.30;;;8.85;;
36651;SDS011;53334;51.976;20.144;2022-10-10T07:02:36;28.13;;;7.88;;
36651;SDS011;53334;51.976;20.144;2022-10-10T07:05:12;12.05;;;7.80;;
36651;SDS011;53334;51.976;20.144;2022-10-10T07:07:50;12.60;;;7.70;;
36651;SDS011;53334;51.976;20.144;2022-10-10T07:10:25;15.25;;;8.18;;
36651;SDS011;53334;51.976;20.144;2022-10-10T07:13:00;16.90;;;7.90;;
36651;SDS011;53334;51.976;20.144;2022-10-10T07:15:34;22.05;;;8.38;;
36651;SDS011;53334;51.976;20.144;2022-10-10T07:18:08;16.40;;;7.40;;
36651;SDS011;53334;51.976;20.144;2022-10-10T07:20:43;12.85;;;7.22;;
36651;SDS011;53334;51.976;20.144;2022-10-10T07:23:17;12.98;;;7.30;;
36651;SDS011;53334;51.976;20.144;2022-10-10T07:25:51;13.48;;;7.63;;
36651;SDS011;53334;51.976;20.144;2022-10-10T07:28:32;10.45;;;7.25;;
36651;SDS011;53334;51.976;20.144;2022-10-10T07:31:07;13.80;;;7.53;;
36651;SDS011;53334;51.976;20.144;2022-10-10T07:33:42;13.45;;;7.57;;
36651;SDS011;53334;51.976;20.144;2022-10-10T07:36:21;14.63;;;7.78;;
36651;SDS011;53334;51.976;20.144;2022-10-10T07:38:55;15.45;;;7.85;;
36651;SDS011;53334;51.976;20.144;2022-10-10T07:41:29;9.13;;;6.57;;
36651;SDS011;53334;51.976;20.144;2022-10-10T07:44:04;12.30;;;6.45;;
36651;SDS011;53334;51.976;20.144;2022-10-10T07:46:38;17.27;;;7.47;;
36651;SDS011;53334;51.976;20.144;2022-10-10T07:49:12;11.55;;;7.15;;
36651;SDS011;53334;51.976;20.144;2022-10-10T07:51:46;11.38;;;6.95;;
36651;SDS011;53334;51.976;20.144;2022-10-10T07:54:20;10.95;;;6.65;;
36651;SDS011;53334;51.976;20.144;2022-10-10T07:56:54;10.02;;;6.20;;
36651;SDS011;53334;51.976;20.144;2022-10-10T07:59:30;9.75;;;6.25;;
36651;SDS011;53334;51.976;20.144;2022-10-10T08:02:04;11.95;;;7.63;;
36651;SDS011;53334;51.976;20.144;2022-10-10T08:04:38;20.52;;;7.40;;
36651;SDS011;53334;51.976;20.144;2022-10-10T08:07:12;12.70;;;7.40;;
36651;SDS011;53334;51.976;20.144;2022-10-10T08:12:19;10.73;;;6.90;;
36651;SDS011;53334;51.976;20.144;2022-10-10T08:14:55;10.57;;;6.13;;
36651;SDS011;53334;51.976;20.144;2022-10-10T08:17:30;9.82;;;6.38;;
36651;SDS011;53334;51.976;20.144;2022-10-10T08:20:04;10.23;;;6.22;;
36651;SDS011;53334;51.976;20.144;2022-10-10T08:22:39;12.13;;;6.75;;
36651;SDS011;53334;51.976;20.144;2022-10-10T08:25:13;8.40;;;5.68;;
36651;SDS011;53334;51.976;20.144;2022-10-10T08:27:47;8.30;;;5.35;;
36651;SDS011;53334;51.976;20.144;2022-10-10T08:30:23;10.93;;;6.65;;
36651;SDS011;53334;51.976;20.144;2022-10-10T08:32:57;12.73;;;5.63;;
36651;SDS011;53334;51.976;20.144;2022-10-10T08:35:35;11.00;;;5.88;;
36651;SDS011;53334;51.976;20.144;2022-10-10T08:38:10;6.90;;;5.85;;
36651;SDS011;53334;51.976;20.144;2022-10-10T08:40:46;16.23;;;6.00;;
36651;SDS011;53334;51.976;20.144;2022-10-10T08:43:25;9.65;;;5.82;;
36651;SDS011;53334;51.976;20.144;2022-10-10T08:46:07;10.95;;;5.10;;
36651;SDS011;53334;51.976;20.144;2022-10-10T08:49:04;10.63;;;5.82;;
36651;SDS011;53334;51.976;20.144;2022-10-10T08:51:51;12.70;;;5.35;;
36651;SDS011;53334;51.976;20.144;2022-10-10T08:54:30;9.82;;;6.07;;
36651;SDS011;53334;51.976;20.144;2022-10-10T08:57:17;10.35;;;5.43;;
36651;SDS011;53334;51.976;20.144;2022-10-10T08:59:58;13.68;;;5.82;;
36651;SDS011;53334;51.976;20.144;2022-10-10T09:02:38;10.45;;;5.90;;
36651;SDS011;53334;51.976;20.144;2022-10-10T09:05:28;14.00;;;4.45;;
36651;SDS011;53334;51.976;20.144;2022-10-10T09:08:24;9.32;;;4.72;;
36651;SDS011;53334;51.976;20.144;2022-10-10T09:11:08;11.40;;;4.80;;
36651;SDS011;53334;51.976;20.144;2022-10-10T09:13:54;10.73;;;4.88;;
36651;SDS011;53334;51.976;20.144;2022-10-10T09:16:39;7.13;;;4.45;;
36651;SDS011;53334;51.976;20.144;2022-10-10T09:19:23;11.23;;;4.32;;
36651;SDS011;53334;51.976;20.144;2022-10-10T09:22:08;9.10;;;4.13;;
36651;SDS011;53334;51.976;20.144;2022-10-10T09:24:45;6.03;;;4.30;;
36651;SDS011;53334;51.976;20.144;2022-10-10T09:27:23;16.23;;;4.65;;
36651;SDS011;53334;51.976;20.144;2022-10-10T09:30:01;11.77;;;4.40;;
36651;SDS011;53334;51.976;20.144;2022-10-10T09:32:38;11.32;;;5.05;;
36651;SDS011;53334;51.976;20.144;2022-10-10T09:35:19;10.80;;;4.35;;
36651;SDS011;53334;51.976;20.144;2022-10-10T09:37:56;9.70;;;4.47;;
36651;SDS011;53334;51.976;20.144;2022-10-10T09:40:35;7.45;;;4.60;;
36651;SDS011;53334;51.976;20.144;2022-10-10T09:43:12;5.60;;;4.05;;
36651;SDS011;53334;51.976;20.144;2022-10-10T09:45:50;9.70;;;4.72;;
36651;SDS011;53334;51.976;20.144;2022-10-10T09:48:27;9.13;;;4.57;;
36651;SDS011;53334;51.976;20.144;2022-10-10T09:51:06;7.97;;;4.65;;
36651;SDS011;53334;51.976;20.144;2022-10-10T09:53:45;9.20;;;4.45;;
36651;SDS011;53334;51.976;20.144;2022-10-10T09:56:22;6.32;;;4.47;;
36651;SDS011;53334;51.976;20.144;2022-10-10T09:58:59;5.75;;;3.95;;
36651;SDS011;53334;51.976;20.144;2022-10-10T10:01:33;5.32;;;3.53;;
36651;SDS011;53334;51.976;20.144;2022-10-10T10:04:13;5.93;;;4.18;;
36651;SDS011;53334;51.976;20.144;2022-10-10T10:07:06;11.15;;;3.63;;
36651;SDS011;53334;51.976;20.144;2022-10-10T10:09:53;5.55;;;3.53;;
36651;SDS011;53334;51.976;20.144;2022-10-10T10:12:28;5.55;;;3.58;;
36651;SDS011;53334;51.976;20.144;2022-10-10T10:15:15;7.88;;;3.33;;
36651;SDS011;53334;51.976;20.144;2022-10-10T10:20:44;6.22;;;3.35;;
36651;SDS011;53334;51.976;20.144;2022-10-10T10:23:25;4.63;;;3.08;;
36651;SDS011;53334;51.976;20.144;2022-10-10T10:26:08;4.63;;;3.40;;
36651;SDS011;53334;51.976;20.144;2022-10-10T10:28:49;9.30;;;3.50;;
36651;SDS011;53334;51.976;20.144;2022-10-10T10:31:40;5.00;;;3.33;;
36651;SDS011;53334;51.976;20.144;2022-10-10T10:34:28;7.90;;;3.28;;
36651;SDS011;53334;51.976;20.144;2022-10-10T10:37:19;6.57;;;3.50;;
36651;SDS011;53334;51.976;20.144;2022-10-10T10:40:02;5.10;;;3.42;;
36651;SDS011;53334;51.976;20.144;2022-10-10T10:42:53;6.18;;;3.63;;
36651;SDS011;53334;51.976;20.144;2022-10-10T10:45:40;5.35;;;3.67;;
36651;SDS011;53334;51.976;20.144;2022-10-10T10:48:26;4.70;;;3.88;;
36651;SDS011;53334;51.976;20.144;2022-10-10T10:51:04;3.95;;;3.55;;
36651;SDS011;53334;51.976;20.144;2022-10-10T10:53:49;6.63;;;3.83;;
36651;SDS011;53334;51.976;20.144;2022-10-10T10:56:34;4.45;;;3.63;;
36651;SDS011;53334;51.976;20.144;2022-10-10T10:59:23;9.40;;;3.90;;
36651;SDS011;53334;51.976;20.144;2022-10-10T11:02:35;5.03;;;3.60;;
36651;SDS011;53334;51.976;20.144;2022-10-10T11:05:33;4.55;;;3.35;;
36651;SDS011;53334;51.976;20.144;2022-10-10T11:11:18;5.95;;;3.33;;
36651;SDS011;53334;51.976;20.144;2022-10-10T11:14:05;6.35;;;3.60;;
36651;SDS011;53334;51.976;20.144;2022-10-10T11:16:49;12.75;;;3.88;;
36651;SDS011;53334;51.976;20.144;2022-10-10T11:19:27;6.00;;;3.70;;
36651;SDS011;53334;51.976;20.144;2022-10-10T11:22:05;3.83;;;3.20;;
36651;SDS011;53334;51.976;20.144;2022-10-10T11:24:42;7.07;;;4.00;;
36651;SDS011;53334;51.976;20.144;2022-10-10T11:27:21;7.18;;;3.35;;
36651;SDS011;53334;51.976;20.144;2022-10-10T11:30:05;10.02;;;3.30;;
36651;SDS011;53334;51.976;20.144;2022-10-10T11:32:46;4.72;;;2.78;;
36651;SDS011;53334;51.976;20.144;2022-10-10T11:35:26;3.50;;;2.67;;
36651;SDS011;53334;51.976;20.144;2022-10-10T11:38:13;4.65;;;2.90;;
36651;SDS011;53334;51.976;20.144;2022-10-10T11:40:54;4.43;;;3.08;;
36651;SDS011;53334;51.976;20.144;2022-10-10T11:43:32;5.35;;;3.10;;
36651;SDS011;53334;51.976;20.144;2022-10-10T11:46:18;3.78;;;2.88;;
36651;SDS011;53334;51.976;20.144;2022-10-10T11:48:59;5.00;;;3.38;;
36651;SDS011;53334;51.976;20.144;2022-10-10T11:51:43;4.53;;;2.85;;
36651;SDS011;53334;51.976;20.144;2022-10-10T11:54:54;3.55;;;2.40;;
36651;SDS011;53334;51.976;20.144;2022-10-10T11:57:34;3.53;;;2.90;;
36651;SDS011;53334;51.976;20.144;2022-10-10T12:00:14;5.53;;;2.53;;
36651;SDS011;53334;51.976;20.144;2022-10-10T12:02:50;3.95;;;2.80;;
36651;SDS011;53334;51.976;20.144;2022-10-10T12:05:28;5.25;;;3.10;;
36651;SDS011;53334;51.976;20.144;2022-10-10T12:08:11;4.05;;;2.95;;
36651;SDS011;53334;51.976;20.144;2022-10-10T12:10:50;3.85;;;2.90;;
36651;SDS011;53334;51.976;20.144;2022-10-10T12:13:29;7.53;;;3.38;;
36651;SDS011;53334;51.976;20.144;2022-10-10T12:16:06;3.58;;;2.78;;
36651;SDS011;53334;51.976;20.144;2022-10-10T12:18:44;4.32;;;3.13;;
36651;SDS011;53334;51.976;20.144;2022-10-10T12:21:24;8.25;;;2.78;;
36651;SDS011;53334;51.976;20.144;2022-10-10T12:24:00;4.47;;;2.90;;
36651;SDS011;53334;51.976;20.144;2022-10-10T12:32:52;7.40;;;2.67;;
36651;SDS011;53334;51.976;20.144;2022-10-10T12:35:38;4.65;;;3.03;;
36651;SDS011;53334;51.976;20.144;2022-10-10T12:38:14;4.38;;;2.45;;
36651;SDS011;53334;51.976;20.144;2022-10-10T12:41:03;5.10;;;2.40;;
36651;SDS011;53334;51.976;20.144;2022-10-10T12:43:49;2.30;;;2.10;;
36651;SDS011;53334;51.976;20.144;2022-10-10T12:46:44;3.53;;;2.47;;
36651;SDS011;53334;51.976;20.144;2022-10-10T12:49:21;5.10;;;2.50;;
36651;SDS011;53334;51.976;20.144;2022-10-10T12:52:02;7.95;;;3.20;;
36651;SDS011;53334;51.976;20.144;2022-10-10T12:54:46;3.45;;;2.55;;
36651;SDS011;53334;51.976;20.144;2022-10-10T12:57:31;9.25;;;2.97;;
36651;SDS011;53334;51.976;20.144;2022-10-10T13:00:13;14.80;;;3.10;;
36651;SDS011;53334;51.976;20.144;2022-10-10T13:02:49;6.05;;;2.55;;
36651;SDS011;53334;51.976;20.144;2022-10-10T13:05:27;8.52;;;3.13;;
36651;SDS011;53334;51.976;20.144;2022-10-10T13:08:07;4.07;;;2.70;;
36651;SDS011;53334;51.976;20.144;2022-10-10T13:10:59;6.97;;;2.40;;
36651;SDS011;53334;51.976;20.144;2022-10-10T13:13:37;4.93;;;2.90;;
36651;SDS011;53334;51.976;20.144;2022-10-10T13:16:13;6.88;;;2.45;;
36651;SDS011;53334;51.976;20.144;2022-10-10T13:18:48;4.85;;;3.08;;
36651;SDS011;53334;51.976;20.144;2022-10-10T13:21:25;5.40;;;2.53;;
36651;SDS011;53334;51.976;20.144;2022-10-10T13:24:04;6.55;;;2.88;;
36651;SDS011;53334;51.976;20.144;2022-10-10T13:26:42;8.73;;;2.72;;
36651;SDS011;53334;51.976;20.144;2022-10-10T13:29:21;5.90;;;2.95;;
36651;SDS011;53334;51.976;20.144;2022-10-10T13:31:58;8.02;;;3.15;;
36651;SDS011;53334;51.976;20.144;2022-10-10T13:34:36;7.25;;;2.88;;
36651;SDS011;53334;51.976;20.144;2022-10-10T13:37:14;7.80;;;3.03;;
36651;SDS011;53334;51.976;20.144;2022-10-10T13:39:51;8.80;;;3.30;;
36651;SDS011;53334;51.976;20.144;2022-10-10T13:42:30;9.23;;;2.78;;
36651;SDS011;53334;51.976;20.144;2022-10-10T13:48:18;6.53;;;3.35;;
36651;SDS011;53334;51.976;20.144;2022-10-10T13:51:01;15.20;;;3.30;;
36651;SDS011;53334;51.976;20.144;2022-10-10T13:56:24;9.30;;;3.20;;
36651;SDS011;53334;51.976;20.144;2022-10-10T13:59:04;7.55;;;3.47;;
36651;SDS011;53334;51.976;20.144;2022-10-10T14:01:41;4.75;;;2.80;;
36651;SDS011;53334;51.976;20.144;2022-10-10T14:04:19;10.50;;;3.60;;
36651;SDS011;53334;51.976;20.144;2022-10-10T14:06:57;8.05;;;3.40;;
36651;SDS011;53334;51.976;20.144;2022-10-10T14:09:37;8.30;;;2.53;;
36651;SDS011;53334;51.976;20.144;2022-10-10T14:12:16;6.32;;;3.38;;
36651;SDS011;53334;51.976;20.144;2022-10-10T14:14:56;10.85;;;3.10;;
36651;SDS011;53334;51.976;20.144;2022-10-10T14:17:31;12.88;;;3.17;;
36651;SDS011;53334;51.976;20.144;2022-10-10T14:20:07;11.48;;;3.05;;
36651;SDS011;53334;51.976;20.144;2022-10-10T14:22:44;6.22;;;2.97;;
36651;SDS011;53334;51.976;20.144;2022-10-10T14:25:19;8.00;;;3.42;;
36651;SDS011;53334;51.976;20.144;2022-10-10T14:27:54;6.90;;;3.33;;
36651;SDS011;53334;51.976;20.144;2022-10-10T14:30:28;10.90;;;3.13;;
36651;SDS011;53334;51.976;20.144;2022-10-10T14:33:07;7.63;;;2.97;;
36651;SDS011;53334;51.976;20.144;2022-10-10T14:35:43;7.80;;;3.50;;
36651;SDS011;53334;51.976;20.144;2022-10-10T14:38:18;8.60;;;2.80;;
36651;SDS011;53334;51.976;20.144;2022-10-10T14:40:53;6.90;;;3.22;;
36651;SDS011;53334;51.976;20.144;2022-10-10T14:43:28;5.63;;;3.08;;
36651;SDS011;53334;51.976;20.144;2022-10-10T14:46:02;8.35;;;3.58;;
36651;SDS011;53334;51.976;20.144;2022-10-10T14:48:37;4.35;;;2.45;;
36651;SDS011;53334;51.976;20.144;2022-10-10T14:51:11;3.95;;;3.08;;
36651;SDS011;53334;51.976;20.144;2022-10-10T14:56:44;15.02;;;3.20;;
36651;SDS011;53334;51.976;20.144;2022-10-10T14:59:40;4.35;;;2.58;;
36651;SDS011;53334;51.976;20.144;2022-10-10T15:02:20;5.30;;;3.25;;
36651;SDS011;53334;51.976;20.144;2022-10-10T15:04:54;5.05;;;2.97;;
36651;SDS011;53334;51.976;20.144;2022-10-10T15:07:28;7.30;;;3.42;;
36651;SDS011;53334;51.976;20.144;2022-10-10T15:10:03;3.80;;;2.53;;
36651;SDS011;53334;51.976;20.144;2022-10-10T15:12:58;4.65;;;2.83;;
36651;SDS011;53334;51.976;20.144;2022-10-10T15:15:33;5.90;;;3.35;;
36651;SDS011;53334;51.976;20.144;2022-10-10T15:18:07;4.82;;;3.45;;
36651;SDS011;53334;51.976;20.144;2022-10-10T15:21:06;8.20;;;3.20;;
36651;SDS011;53334;51.976;20.144;2022-10-10T15:23:41;4.82;;;2.90;;
36651;SDS011;53334;51.976;20.144;2022-10-10T15:26:15;5.00;;;3.05;;
36651;SDS011;53334;51.976;20.144;2022-10-10T15:28:49;3.08;;;2.78;;
36651;SDS011;53334;51.976;20.144;2022-10-10T15:31:27;5.55;;;3.28;;
36651;SDS011;53334;51.976;20.144;2022-10-10T15:34:03;5.10;;;3.25;;
36651;SDS011;53334;51.976;20.144;2022-10-10T15:36:38;6.35;;;3.35;;
36651;SDS011;53334;51.976;20.144;2022-10-10T15:39:13;6.15;;;3.78;;
36651;SDS011;53334;51.976;20.144;2022-10-10T15:41:47;7.22;;;3.63;;
36651;SDS011;53334;51.976;20.144;2022-10-10T15:44:21;4.32;;;3.05;;
36651;SDS011;53334;51.976;20.144;2022-10-10T15:46:57;7.20;;;3.30;;
36651;SDS011;53334;51.976;20.144;2022-10-10T15:49:31;6.40;;;3.47;;
36651;SDS011;53334;51.976;20.144;2022-10-10T15:52:06;4.20;;;3.25;;
36651;SDS011;53334;51.976;20.144;2022-10-10T15:54:40;3.72;;;3.33;;
36651;SDS011;53334;51.976;20.144;2022-10-10T15:57:14;9.48;;;3.63;;
36651;SDS011;53334;51.976;20.144;2022-10-10T15:59:50;6.32;;;3.38;;